createdAt,value
2022-08-08T00:01:08.809Z,6.00
2022-08-08T00:03:47.516Z,6.03
2022-08-08T00:06:28.348Z,5.87
2022-08-08T00:09:12.135Z,6.07
2022-08-08T00:11:46.719Z,6.37
2022-08-08T00:14:48.154Z,6.30
2022-08-08T00:18:02.360Z,5.90
2022-08-08T00:20:37.376Z,6.10
2022-08-08T00:23:14.710Z,6.33
2022-08-08T00:25:51.350Z,7.00
2022-08-08T00:28:35.788Z,6.53
2022-08-08T00:32:20.244Z,6.40
2022-08-08T00:34:31.852Z,6.27
2022-08-08T00:37:45.140Z,6.63
2022-08-08T00:41:13.011Z,6.47
2022-08-08T00:43:41.660Z,5.90
2022-08-08T00:46:57.397Z,6.00
2022-08-08T00:50:04.469Z,6.23
2022-08-08T00:52:48.798Z,5.73
2022-08-08T00:55:59.335Z,5.63
2022-08-08T00:59:18.732Z,6.20
2022-08-08T01:03:58.584Z,6.00
2022-08-08T01:06:08.260Z,6.30
2022-08-08T01:09:35.693Z,5.97
2022-08-08T01:12:26.848Z,5.73
2022-08-08T01:15:44.154Z,6.23
2022-08-08T01:18:53.017Z,6.30
2022-08-08T01:22:10.128Z,6.43
2022-08-08T01:24:54.389Z,6.50
2022-08-08T01:28:00.055Z,6.13
2022-08-08T01:32:02.667Z,6.30
2022-08-08T01:34:53.549Z,6.27
2022-08-08T01:38:00.288Z,6.13
2022-08-08T01:40:38.789Z,6.63
2022-08-08T01:43:16.634Z,6.53
2022-08-08T01:45:56.697Z,5.83
2022-08-08T01:48:43.856Z,6.27
2022-08-08T01:52:42.787Z,6.03
2022-08-08T01:55:45.244Z,6.23
2022-08-08T01:58:03.971Z,6.90
2022-08-08T02:00:25.333Z,6.57
2022-08-08T02:03:49.489Z,6.10
2022-08-08T02:06:32.571Z,6.43
2022-08-08T02:09:16.247Z,6.47
2022-08-08T02:12:00.062Z,6.70
2022-08-08T02:14:49.872Z,6.90
2022-08-08T02:17:35.277Z,6.57
2022-08-08T02:21:01.251Z,6.23
2022-08-08T02:23:16.646Z,6.43
2022-08-08T02:25:53.150Z,6.83
2022-08-08T02:28:41.396Z,6.90
2022-08-08T02:31:59.051Z,5.77
2022-08-08T02:34:33.006Z,6.33
2022-08-08T02:37:52.726Z,6.30
2022-08-08T02:40:08.645Z,6.37
2022-08-08T02:44:44.952Z,6.33
2022-08-08T02:46:21.888Z,6.57
2022-08-08T02:49:27.697Z,6.33
2022-08-08T02:52:35.031Z,6.50
2022-08-08T02:55:25.763Z,7.33
2022-08-08T02:59:25.787Z,6.33
2022-08-08T03:02:30.365Z,6.17
2022-08-08T03:05:45.442Z,6.20
2022-08-08T03:08:57.019Z,6.50
2022-08-08T03:12:14.021Z,6.40
2022-08-08T03:16:01.581Z,6.50
2022-08-08T03:17:52.086Z,6.00
2022-08-08T03:20:47.031Z,5.93
2022-08-08T03:23:21.943Z,6.80
2022-08-08T03:25:52.143Z,6.80
2022-08-08T03:28:28.684Z,5.97
2022-08-08T03:31:07.862Z,6.00
2022-08-08T03:33:58.221Z,6.07
2022-08-08T03:36:30.640Z,6.70
2022-08-08T03:39:14.839Z,6.70
2022-08-08T03:42:27.145Z,6.10
2022-08-08T03:44:35.246Z,6.00
2022-08-08T03:47:14.194Z,6.07
2022-08-08T03:50:00.336Z,6.43
2022-08-08T03:52:33.701Z,6.20
2022-08-08T03:55:55.178Z,6.37
2022-08-08T03:58:34.251Z,6.17
2022-08-08T04:01:02.566Z,6.17
2022-08-08T04:03:58.102Z,6.03
2022-08-08T04:06:29.734Z,6.13
2022-08-08T04:08:58.339Z,6.47
2022-08-08T04:11:58.865Z,6.03
2022-08-08T04:14:35.586Z,6.40
2022-08-08T04:17:07.002Z,5.97
2022-08-08T04:19:43.635Z,5.40
2022-08-08T04:22:11.732Z,5.80
2022-08-08T04:24:44.504Z,5.90
2022-08-08T04:28:03.137Z,5.73
2022-08-08T04:30:17.489Z,5.80
2022-08-08T04:32:49.859Z,6.30
2022-08-08T04:35:18.345Z,5.83
2022-08-08T04:37:50.374Z,6.63
2022-08-08T04:40:19.425Z,6.00
2022-08-08T04:42:56.816Z,5.53
2022-08-08T04:45:26.561Z,6.13
2022-08-08T04:47:54.977Z,5.93
2022-08-08T04:50:23.817Z,5.43
2022-08-08T04:53:00.830Z,5.70
2022-08-08T04:55:47.653Z,5.73
2022-08-08T04:58:22.926Z,5.77
2022-08-08T05:00:51.788Z,5.43
2022-08-08T05:04:09.153Z,5.37
2022-08-08T05:06:13.249Z,6.10
2022-08-08T05:08:43.059Z,5.70
2022-08-08T05:11:22.714Z,5.90
2022-08-08T05:13:57.975Z,6.47
2022-08-08T05:16:55.527Z,6.20
2022-08-08T05:20:08.909Z,5.40
2022-08-08T05:22:07.074Z,5.53
2022-08-08T05:24:37.445Z,5.70
2022-08-08T05:27:06.195Z,5.37
2022-08-08T05:29:36.990Z,5.40
2022-08-08T05:32:07.514Z,5.67
2022-08-08T05:34:37.899Z,5.60
2022-08-08T05:37:11.875Z,5.87
2022-08-08T05:39:48.135Z,5.47
2022-08-08T05:42:16.432Z,5.60
2022-08-08T05:44:51.573Z,5.53
2022-08-08T05:47:23.423Z,6.00
2022-08-08T05:49:53.871Z,5.67
2022-08-08T05:52:31.635Z,5.93
2022-08-08T05:55:09.002Z,6.00
2022-08-08T05:58:04.841Z,6.40
2022-08-08T06:00:33.935Z,5.83
2022-08-08T06:03:13.376Z,5.60
2022-08-08T06:05:53.229Z,5.50
2022-08-08T06:08:33.175Z,5.80
2022-08-08T06:11:02.245Z,5.50
2022-08-08T06:13:36.347Z,5.57
2022-08-08T06:16:18.798Z,5.60
2022-08-08T06:18:50.204Z,5.03
2022-08-08T06:21:33.060Z,5.57
2022-08-08T06:24:13.764Z,5.00
2022-08-08T06:26:57.861Z,4.83
2022-08-08T06:29:56.863Z,5.03
2022-08-08T06:32:31.331Z,5.60
2022-08-08T06:36:04.944Z,4.20
2022-08-08T06:37:55.787Z,3.57
2022-08-08T06:40:27.004Z,3.40
2022-08-08T06:43:01.866Z,4.73
2022-08-08T06:45:33.772Z,4.93
2022-08-08T06:48:04.470Z,5.37
2022-08-08T06:50:38.589Z,5.03
2022-08-08T06:53:17.557Z,3.00
2022-08-08T06:56:02.615Z,3.55
2022-08-08T06:58:33.880Z,3.13
2022-08-08T07:01:11.704Z,2.90
2022-08-08T07:04:37.357Z,3.05
2022-08-08T07:06:55.720Z,3.72
2022-08-08T07:09:45.431Z,2.67
2022-08-08T07:12:24.241Z,2.85
2022-08-08T07:15:04.650Z,2.97
2022-08-08T07:18:00.624Z,2.50
2022-08-08T07:20:30.876Z,2.83
2022-08-08T07:23:03.166Z,2.95
2022-08-08T07:25:35.201Z,2.95
2022-08-08T07:28:18.573Z,3.08
2022-08-08T07:30:47.935Z,2.78
2022-08-08T07:33:17.564Z,2.70
2022-08-08T07:35:48.631Z,2.75
2022-08-08T07:38:24.786Z,2.63
2022-08-08T07:40:59.045Z,4.45
2022-08-08T07:43:36.774Z,2.95
2022-08-08T07:46:23.100Z,2.80
2022-08-08T07:48:52.253Z,3.40
2022-08-08T07:51:24.397Z,4.30
2022-08-08T07:54:26.407Z,2.60
2022-08-08T07:57:09.006Z,9.35
2022-08-08T07:59:51.595Z,3.47
2022-08-08T08:02:36.850Z,2.22
2022-08-08T08:05:19.082Z,2.65
2022-08-08T08:07:53.288Z,2.70
2022-08-08T08:10:30.242Z,2.47
2022-08-08T08:13:25.957Z,2.70
2022-08-08T08:16:11.444Z,2.80
2022-08-08T08:18:55.674Z,2.88
2022-08-08T08:21:44.800Z,4.25
2022-08-08T08:24:18.495Z,2.30
2022-08-08T08:26:52.725Z,2.85
2022-08-08T08:29:24.231Z,3.75
2022-08-08T08:31:57.523Z,2.90
2022-08-08T08:34:32.366Z,2.42
2022-08-08T08:37:03.327Z,11.52
2022-08-08T08:39:59.322Z,3.83
2022-08-08T08:42:31.850Z,3.17
2022-08-08T08:45:22.048Z,3.03
2022-08-08T08:47:54.518Z,2.80
2022-08-08T08:50:32.861Z,4.03
2022-08-08T08:53:54.890Z,2.70
2022-08-08T08:56:02.061Z,4.05
2022-08-08T08:58:33.436Z,3.17
2022-08-08T09:01:08.642Z,2.60
2022-08-08T09:03:46.900Z,3.13
2022-08-08T09:06:27.138Z,2.50
2022-08-08T09:09:07.313Z,2.40
2022-08-08T09:12:01.476Z,2.50
2022-08-08T09:14:34.327Z,2.50
2022-08-08T09:17:11.589Z,3.60
2022-08-08T09:22:31.450Z,2.15
2022-08-08T09:24:59.331Z,3.10
2022-08-08T09:27:56.740Z,2.00
2022-08-08T09:30:22.168Z,1.98
2022-08-08T09:33:12.295Z,2.90
2022-08-08T09:35:49.572Z,3.10
2022-08-08T09:38:31.971Z,4.93
2022-08-08T09:41:06.500Z,4.22
2022-08-08T09:44:05.257Z,2.40
2022-08-08T09:46:36.253Z,3.03
2022-08-08T09:49:41.491Z,2.40
2022-08-08T09:52:07.076Z,2.38
2022-08-08T09:54:45.642Z,2.67
2022-08-08T09:57:19.713Z,2.85
2022-08-08T10:02:47.500Z,2.80
2022-08-08T10:05:23.077Z,16.05
2022-08-08T10:08:00.035Z,3.92
2022-08-08T10:10:30.120Z,5.25
2022-08-08T10:13:06.052Z,3.03
2022-08-08T10:15:59.008Z,2.30
2022-08-08T10:18:32.849Z,2.40
2022-08-08T10:21:22.423Z,2.40
2022-08-08T10:23:58.643Z,3.47
2022-08-08T10:26:52.311Z,3.38
2022-08-08T10:29:25.129Z,2.60
2022-08-08T10:32:17.124Z,2.10
2022-08-08T10:34:57.024Z,2.67
2022-08-08T10:37:30.222Z,2.40
2022-08-08T10:40:02.436Z,2.50
2022-08-08T10:42:37.531Z,3.20
2022-08-08T10:45:09.229Z,2.53
2022-08-08T10:47:43.948Z,2.20
2022-08-08T10:50:16.425Z,2.72
2022-08-08T10:52:44.868Z,2.40
2022-08-08T10:55:41.017Z,2.40
2022-08-08T10:58:07.467Z,2.15
2022-08-08T11:00:48.450Z,2.33
2022-08-08T11:03:37.108Z,2.80
2022-08-08T11:06:17.547Z,2.30
2022-08-08T11:08:53.298Z,2.65
2022-08-08T11:11:32.313Z,2.20
2022-08-08T11:14:12.451Z,13.02
2022-08-08T11:16:46.680Z,2.97
2022-08-08T11:19:18.060Z,2.80
2022-08-08T11:21:55.377Z,2.33
2022-08-08T11:24:27.476Z,2.30
2022-08-08T11:27:03.032Z,2.40
2022-08-08T11:29:50.855Z,2.00
2022-08-08T11:32:31.415Z,3.60
2022-08-08T11:35:23.158Z,2.10
2022-08-08T11:38:38.905Z,2.38
2022-08-08T11:40:44.783Z,2.85
2022-08-08T11:43:18.158Z,3.58
2022-08-08T11:46:09.149Z,4.45
2022-08-08T11:48:35.143Z,3.28
2022-08-08T11:51:30.948Z,2.40
2022-08-08T11:54:01.172Z,3.28
2022-08-08T11:56:34.459Z,3.42
2022-08-08T11:59:10.000Z,2.20
2022-08-08T12:01:38.603Z,3.00
2022-08-08T12:04:09.181Z,2.13
2022-08-08T12:06:42.964Z,6.25
2022-08-08T12:09:17.151Z,2.17
2022-08-08T12:11:49.420Z,2.00
2022-08-08T12:14:24.065Z,2.10
2022-08-08T12:16:57.829Z,2.20
2022-08-08T12:19:37.869Z,3.40
2022-08-08T12:22:20.912Z,2.05
2022-08-08T12:24:53.935Z,2.08
2022-08-08T12:27:26.615Z,1.92
2022-08-08T12:30:02.196Z,2.58
2022-08-08T12:32:31.126Z,2.15
2022-08-08T12:35:13.623Z,2.00
2022-08-08T12:38:02.113Z,2.33
2022-08-08T12:40:54.038Z,1.95
2022-08-08T12:43:32.950Z,1.70
2022-08-08T12:46:19.324Z,2.13
2022-08-08T12:49:21.943Z,2.20
2022-08-08T12:51:58.757Z,2.90
2022-08-08T12:54:33.421Z,1.90
2022-08-08T12:57:17.147Z,2.33
2022-08-08T13:00:03.626Z,2.90
2022-08-08T13:02:36.243Z,3.70
2022-08-08T13:05:15.542Z,2.65
2022-08-08T13:08:03.785Z,1.98
2022-08-08T13:10:39.807Z,1.70
2022-08-08T13:13:35.318Z,1.80
2022-08-08T13:16:19.335Z,11.90
2022-08-08T13:18:58.313Z,3.70
2022-08-08T13:21:48.921Z,2.38
2022-08-08T13:24:38.510Z,2.00
2022-08-08T13:27:11.857Z,1.83
2022-08-08T13:29:50.744Z,3.85
2022-08-08T13:32:26.880Z,2.60
2022-08-08T13:34:56.823Z,2.10
2022-08-08T13:37:28.045Z,2.00
2022-08-08T13:40:27.115Z,2.22
2022-08-08T13:42:58.445Z,2.55
2022-08-08T13:45:26.681Z,2.00
2022-08-08T13:47:59.041Z,1.90
2022-08-08T13:50:39.620Z,1.70
2022-08-08T13:53:26.401Z,2.80
2022-08-08T13:56:01.363Z,2.47
2022-08-08T13:58:31.433Z,2.40
2022-08-08T14:01:13.705Z,2.05
2022-08-08T14:03:56.797Z,2.10
2022-08-08T14:06:33.170Z,1.92
2022-08-08T14:09:24.906Z,1.70
2022-08-08T14:11:50.686Z,1.90
2022-08-08T14:14:21.157Z,6.75
2022-08-08T14:16:55.415Z,3.58
2022-08-08T14:19:57.888Z,2.90
2022-08-08T14:22:25.567Z,2.20
2022-08-08T14:24:55.821Z,1.92
2022-08-08T14:27:29.722Z,2.00
2022-08-08T14:30:01.826Z,3.05
2022-08-08T14:32:31.683Z,4.88
2022-08-08T14:35:04.897Z,2.30
2022-08-08T14:37:43.144Z,2.20
2022-08-08T14:40:29.710Z,3.80
2022-08-08T14:42:59.747Z,2.63
2022-08-08T14:45:46.722Z,2.28
2022-08-08T14:48:34.244Z,2.40
2022-08-08T14:51:07.969Z,2.30
2022-08-08T14:53:55.060Z,2.20
2022-08-08T14:56:25.617Z,2.55
2022-08-08T14:58:54.600Z,3.55
2022-08-08T15:01:37.596Z,2.05
2022-08-08T15:04:11.830Z,9.35
2022-08-08T15:06:42.506Z,3.10
2022-08-08T15:09:12.436Z,2.42
2022-08-08T15:11:46.297Z,2.15
2022-08-08T15:14:25.114Z,2.20
2022-08-08T15:16:57.058Z,2.30
2022-08-08T15:19:28.126Z,2.47
2022-08-08T15:21:57.968Z,2.15
2022-08-08T15:24:31.842Z,2.20
2022-08-08T15:27:12.137Z,3.72
2022-08-08T15:29:48.593Z,2.20
2022-08-08T15:32:20.155Z,2.80
2022-08-08T15:34:50.497Z,2.05
2022-08-08T15:37:19.181Z,13.82
2022-08-08T15:39:47.954Z,3.20
2022-08-08T15:42:31.311Z,1.90
2022-08-08T15:45:00.482Z,2.25
2022-08-08T15:47:31.407Z,1.92
2022-08-08T15:50:00.545Z,1.80
2022-08-08T15:52:30.161Z,1.95
2022-08-08T15:55:01.219Z,1.70
2022-08-08T15:57:35.750Z,2.08
2022-08-08T16:00:26.844Z,1.65
2022-08-08T16:02:59.314Z,1.50
2022-08-08T16:05:35.507Z,2.10
2022-08-08T16:08:20.038Z,1.77
2022-08-08T16:13:05.264Z,1.60
2022-08-08T16:13:45.014Z,1.50
2022-08-08T16:16:17.533Z,1.60
2022-08-08T16:18:53.482Z,2.00
2022-08-08T16:21:28.114Z,1.83
2022-08-08T16:23:58.433Z,2.50
2022-08-08T16:26:33.661Z,2.53
2022-08-08T16:29:08.976Z,2.00
2022-08-08T16:31:40.940Z,1.60
2022-08-08T16:34:11.606Z,1.60
2022-08-08T16:36:40.712Z,2.30
2022-08-08T16:39:28.487Z,1.80
2022-08-08T16:42:00.818Z,2.20
2022-08-08T16:44:33.880Z,2.15
2022-08-08T16:47:16.698Z,2.13
2022-08-08T16:49:47.796Z,2.00
2022-08-08T16:55:01.540Z,2.20
2022-08-08T16:55:52.410Z,2.35
2022-08-08T16:58:15.684Z,1.92
2022-08-08T17:00:48.460Z,1.70
2022-08-08T17:03:18.123Z,1.92
2022-08-08T17:05:56.528Z,1.88
2022-08-08T17:08:24.534Z,1.88
2022-08-08T17:10:58.848Z,2.00
2022-08-08T17:13:49.701Z,1.70
2022-08-08T17:16:24.248Z,2.38
2022-08-08T17:18:52.519Z,2.13
2022-08-08T17:21:21.918Z,2.13
2022-08-08T17:24:00.312Z,1.55
2022-08-08T17:26:30.993Z,2.00
2022-08-08T17:29:04.502Z,1.85
2022-08-08T17:31:44.388Z,1.73
2022-08-08T17:34:49.205Z,1.70
2022-08-08T17:37:09.190Z,1.70
2022-08-08T17:40:03.166Z,1.88
2022-08-08T17:42:25.518Z,1.90
2022-08-08T17:44:53.417Z,1.98
2022-08-08T17:47:37.802Z,2.00
2022-08-08T17:50:09.898Z,2.05
2022-08-08T17:52:43.096Z,4.05
2022-08-08T17:56:03.880Z,1.98
2022-08-08T17:58:01.854Z,1.95
2022-08-08T18:00:31.392Z,1.83
2022-08-08T18:03:08.305Z,2.28
2022-08-08T18:05:48.755Z,2.20
2022-08-08T18:08:25.210Z,2.03
2022-08-08T18:11:14.682Z,2.17
2022-08-08T18:13:45.290Z,2.00
2022-08-08T18:16:20.841Z,1.58
2022-08-08T18:18:53.701Z,1.60
2022-08-08T18:21:35.230Z,1.73
2022-08-08T18:24:18.847Z,1.63
2022-08-08T18:26:54.422Z,2.88
2022-08-08T18:29:30.031Z,1.67
2022-08-08T18:32:04.131Z,1.90
2022-08-08T18:34:33.957Z,1.52
2022-08-08T18:37:04.972Z,1.90
2022-08-08T18:39:41.014Z,1.67
2022-08-08T18:42:14.312Z,1.83
2022-08-08T18:44:55.209Z,1.98
2022-08-08T18:47:24.415Z,1.80
2022-08-08T18:49:58.356Z,1.90
2022-08-08T18:52:28.292Z,1.55
2022-08-08T18:55:10.303Z,1.90
2022-08-08T18:57:45.057Z,1.75
2022-08-08T19:00:20.183Z,1.80
2022-08-08T19:03:06.023Z,2.40
2022-08-08T19:05:44.216Z,2.00
2022-08-08T19:08:25.644Z,2.00
2022-08-08T19:10:59.455Z,1.88
2022-08-08T19:13:38.243Z,2.05
2022-08-08T19:16:18.979Z,1.90
2022-08-08T19:18:54.460Z,2.05
2022-08-08T19:21:30.099Z,2.20
2022-08-08T19:23:59.330Z,1.88
2022-08-08T19:26:31.167Z,2.30
2022-08-08T19:28:59.868Z,2.70
2022-08-08T19:31:31.676Z,2.90
2022-08-08T19:34:29.789Z,3.25
2022-08-08T19:36:55.338Z,3.35
2022-08-08T19:39:26.699Z,2.85
2022-08-08T19:42:05.029Z,2.90
2022-08-08T19:44:43.288Z,2.72
2022-08-08T19:47:14.750Z,2.45
2022-08-08T19:50:00.631Z,2.30
2022-08-08T19:52:35.125Z,2.58
2022-08-08T19:55:09.258Z,2.40
2022-08-08T19:57:39.007Z,2.75
2022-08-08T20:00:11.540Z,2.38
2022-08-08T20:02:57.808Z,2.08
2022-08-08T20:06:14.361Z,2.20
2022-08-08T20:08:29.376Z,2.13
2022-08-08T20:11:00.702Z,2.40
2022-08-08T20:14:13.770Z,2.40
2022-08-08T20:16:19.147Z,2.80
2022-08-08T20:18:52.777Z,2.70
2022-08-08T20:21:22.974Z,2.78
2022-08-08T20:23:57.467Z,2.83
2022-08-08T20:26:33.534Z,2.88
2022-08-08T20:29:04.101Z,2.70
2022-08-08T20:32:07.307Z,2.72
2022-08-08T20:34:30.484Z,2.38
2022-08-08T20:37:00.604Z,2.53
2022-08-08T20:39:39.320Z,2.60
2022-08-08T20:42:19.090Z,2.42
2022-08-08T20:44:50.026Z,2.30
2022-08-08T20:47:23.555Z,2.50
2022-08-08T20:49:55.810Z,2.50
2022-08-08T20:52:27.613Z,2.30
2022-08-08T20:54:56.049Z,2.42
2022-08-08T20:57:26.915Z,3.03
2022-08-08T20:59:56.752Z,2.75
2022-08-08T21:02:25.625Z,2.65
2022-08-08T21:04:56.245Z,3.00
2022-08-08T21:07:31.262Z,5.93
2022-08-08T21:10:14.056Z,4.10
2022-08-08T21:12:45.936Z,2.80
2022-08-08T21:15:16.764Z,2.50
2022-08-08T21:18:04.134Z,2.78
2022-08-08T21:20:34.123Z,5.35
2022-08-08T21:23:03.342Z,2.40
2022-08-08T21:25:36.461Z,2.45
2022-08-08T21:28:15.017Z,2.50
2022-08-08T21:30:51.902Z,2.40
2022-08-08T21:33:21.228Z,2.10
2022-08-08T21:36:18.728Z,2.20
2022-08-08T21:38:37.354Z,3.00
2022-08-08T21:41:05.328Z,2.72
2022-08-08T21:43:35.613Z,2.53
2022-08-08T21:48:06.185Z,2.30
2022-08-08T21:48:55.114Z,1.80
2022-08-08T21:54:17.925Z,2.27
2022-08-08T21:54:22.740Z,2.00
2022-08-08T21:57:02.730Z,2.70
2022-08-08T22:00:02.717Z,2.53
2022-08-08T22:02:23.542Z,2.20
2022-08-08T22:04:53.418Z,2.08
2022-08-08T22:07:34.499Z,2.33
2022-08-08T22:10:09.618Z,1.73
2022-08-08T22:12:38.986Z,2.00
2022-08-08T22:15:08.569Z,1.83
2022-08-08T22:17:45.742Z,1.80
2022-08-08T22:20:19.017Z,1.80
2022-08-08T22:22:52.708Z,1.90
2022-08-08T22:25:25.269Z,1.90
2022-08-08T22:28:02.875Z,1.93
2022-08-08T22:30:33.664Z,1.70
2022-08-08T22:33:08.997Z,1.83
2022-08-08T22:36:05.545Z,1.90
2022-08-08T22:38:47.950Z,1.63
2022-08-08T22:41:21.770Z,2.10
2022-08-08T22:44:02.869Z,2.00
2022-08-08T22:46:34.537Z,1.97
2022-08-08T22:49:09.441Z,2.83
2022-08-08T22:51:42.474Z,2.53
2022-08-08T22:54:30.756Z,1.93
2022-08-08T22:57:11.544Z,2.00
2022-08-08T22:59:52.724Z,1.87
2022-08-08T23:02:29.118Z,1.87
2022-08-08T23:05:04.784Z,2.03
2022-08-08T23:07:49.388Z,2.10
2022-08-08T23:10:25.563Z,1.73
2022-08-08T23:12:56.138Z,1.90
2022-08-08T23:16:42.100Z,2.10
2022-08-08T23:18:13.128Z,2.00
2022-08-08T23:20:44.149Z,2.10
2022-08-08T23:23:12.995Z,1.80
2022-08-08T23:25:47.844Z,2.10
2022-08-08T23:28:18.051Z,1.87
2022-08-08T23:30:48.576Z,1.80
2022-08-08T23:33:20.850Z,1.93
2022-08-08T23:36:08.465Z,2.03
2022-08-08T23:38:43.934Z,2.00
2022-08-08T23:41:17.363Z,2.10
2022-08-08T23:43:54.331Z,2.33
2022-08-08T23:49:03.737Z,2.13
2022-08-08T23:49:18.102Z,2.00
2022-08-08T23:52:04.318Z,2.00
2022-08-08T23:54:41.666Z,2.00
2022-08-08T23:57:27.754Z,1.90
